Time;durP1;ratioP1;P1;durP2;ratioP2;P2;SDS_P1;SDS_P2;PMS_P1;PMS_P2;Temp;Humidity;BMP_temperature;BMP_pressure;BME280_temperature;BME280_humidity;BME280_pressure;Samples;Min_cycle;Max_cycle;Signal;HPM_P1;HPM_P2
2022/12/29 00:00:16;;;;;;;8.02;3.20;;;10.00;99.90;;;;;;5013191;28;20445;-89
2022/12/29 00:02:42;;;;;;;7.85;3.50;;;9.90;99.90;;;;;;5013114;28;20037;-89
2022/12/29 00:05:10;;;;;;;5.15;3.65;;;9.90;99.90;;;;;;5011749;28;20061;-89
2022/12/29 00:07:38;;;;;;;5.55;3.25;;;10.40;99.90;;;;;;5012525;28;20504;-89
2022/12/29 00:10:07;;;;;;;4.32;3.47;;;10.00;99.90;;;;;;5010846;28;20107;-89
2022/12/29 00:18:01;;;;;;;5.55;3.60;;;9.90;99.90;;;;;;5010402;28;20045;-88
2022/12/29 00:37:03;;;;;;;5.45;3.15;;;9.70;99.90;;;;;;5014400;28;20048;-88
2022/12/29 00:44:04;;;;;;;5.00;3.40;;;10.10;99.90;;;;;;5027718;28;20481;-90
2022/12/29 00:45:05;;;;;;;4.35;3.35;;;10.20;99.90;;;;;;5027498;28;20053;-90
2022/12/29 00:47:30;;;;;;;4.68;3.38;;;10.10;99.90;;;;;;5011930;28;20037;-88
2022/12/29 00:49:59;;;;;;;7.63;3.30;;;10.10;99.90;;;;;;5011048;28;20495;-89
2022/12/29 00:52:27;;;;;;;5.78;3.20;;;10.20;99.90;;;;;;5027807;28;20508;-89
2022/12/29 00:54:53;;;;;;;5.18;2.72;;;10.10;99.90;;;;;;5011983;28;20045;-89
2022/12/29 00:57:19;;;;;;;6.15;3.03;;;10.20;99.90;;;;;;5010579;28;20512;-88
2022/12/29 00:59:49;;;;;;;7.95;3.13;;;10.20;99.90;;;;;;5010217;28;20049;-89
2022/12/29 01:02:15;;;;;;;7.10;3.00;;;10.10;99.90;;;;;;5010980;28;20053;-90
2022/12/29 01:04:43;;;;;;;6.53;3.05;;;10.20;99.90;;;;;;5011810;28;20119;-89
2022/12/29 01:07:09;;;;;;;4.80;2.85;;;10.30;99.90;;;;;;5010416;28;20072;-89
2022/12/29 01:12:40;;;;;;;5.75;3.17;;;10.30;99.90;;;;;;5027164;28;20472;-88
2022/12/29 01:15:10;;;;;;;5.05;2.95;;;10.40;99.90;;;;;;5026425;28;20045;-89
2022/12/29 01:17:40;;;;;;;4.28;3.00;;;10.30;99.90;;;;;;5010528;28;20057;-88
2022/12/29 01:20:08;;;;;;;5.05;3.13;;;10.40;99.90;;;;;;5010427;28;20084;-89
2022/12/29 01:22:37;;;;;;;5.50;3.20;;;10.30;99.90;;;;;;5010335;28;20037;-89
2022/12/29 01:25:04;;;;;;;5.82;3.08;;;10.20;99.90;;;;;;5026354;28;20049;-88
2022/12/29 01:27:30;;;;;;;4.80;3.17;;;10.30;99.90;;;;;;5025552;28;20045;-88
2022/12/29 01:29:59;;;;;;;5.45;3.40;;;10.40;99.90;;;;;;5010360;28;20479;-88
2022/12/29 01:32:25;;;;;;;6.50;3.08;;;10.30;99.90;;;;;;5011676;28;20050;-88
2022/12/29 01:34:50;;;;;;;5.45;3.30;;;10.30;99.90;;;;;;5006130;28;20053;-89
2022/12/29 01:37:16;;;;;;;4.97;3.15;;;10.30;99.90;;;;;;5007243;28;20050;-89
2022/12/29 01:39:42;;;;;;;6.00;3.05;;;10.40;99.90;;;;;;5008717;28;20042;-89
2022/12/29 01:42:17;;;;;;;4.80;3.17;;;10.30;99.90;;;;;;5008563;28;20045;-88
2022/12/29 01:44:52;;;;;;;4.88;3.10;;;10.30;99.90;;;;;;5009982;28;20045;-88
2022/12/29 01:47:24;;;;;;;5.95;3.20;;;10.30;99.90;;;;;;5009941;28;20048;-88
2022/12/29 01:49:52;;;;;;;7.68;3.80;;;10.20;99.90;;;;;;4992551;28;20052;-88
2022/12/29 01:52:18;;;;;;;5.47;3.65;;;10.20;99.90;;;;;;5009876;28;20045;-88
2022/12/29 01:54:49;;;;;;;8.05;3.85;;;10.20;99.90;;;;;;5009426;28;20052;-88
2022/12/29 01:57:21;;;;;;;7.32;3.92;;;10.10;99.90;;;;;;5008438;28;20099;-87
2022/12/29 01:59:55;;;;;;;5.70;3.90;;;10.20;99.90;;;;;;5009624;28;20060;-88
2022/12/29 02:02:21;;;;;;;9.65;4.72;;;10.10;99.90;;;;;;5009879;28;20140;-88
2022/12/29 02:04:47;;;;;;;7.65;4.03;;;10.00;99.90;;;;;;5009775;28;20077;-88
2022/12/29 02:07:19;;;;;;;6.45;4.20;;;10.10;99.90;;;;;;5010227;28;20038;-88
2022/12/29 02:09:48;;;;;;;5.40;4.10;;;10.00;99.90;;;;;;5025257;28;20073;-88
2022/12/29 02:12:15;;;;;;;5.40;3.85;;;10.10;99.90;;;;;;5009848;28;20053;-87
2022/12/29 02:14:40;;;;;;;7.60;3.83;;;10.00;99.90;;;;;;4993507;28;20053;-88
2022/12/29 02:17:16;;;;;;;6.05;3.42;;;9.60;99.90;;;;;;5008949;28;20048;-88
2022/12/29 02:19:42;;;;;;;6.78;3.42;;;10.10;99.90;;;;;;5009763;28;20132;-88
2022/12/29 02:22:17;;;;;;;6.63;3.40;;;9.90;99.90;;;;;;4993692;28;20179;-88
2022/12/29 02:25:05;;;;;;;8.63;3.20;;;10.10;99.90;;;;;;4993249;28;20050;-87
2022/12/29 02:27:41;;;;;;;6.00;3.15;;;10.00;99.90;;;;;;4993098;28;20041;-88
2022/12/29 02:30:24;;;;;;;8.10;3.10;;;10.00;99.90;;;;;;4993195;28;20049;-88
2022/12/29 02:33:06;;;;;;;;;;;10.00;99.90;;;;;;5010771;28;20091;-88
2022/12/29 02:35:45;;;;;;;7.65;3.35;;;10.10;99.90;;;;;;5013325;28;19975;-88
2022/12/29 02:38:31;;;;;;;5.65;3.00;;;9.90;99.90;;;;;;5028238;28;20085;-88
2022/12/29 02:41:16;;;;;;;5.00;2.53;;;10.10;99.90;;;;;;5028791;28;20470;-88
2022/12/29 02:43:42;;;;;;;7.35;2.70;;;10.10;99.90;;;;;;5012066;28;20080;-87
2022/12/29 02:46:15;;;;;;;5.05;2.92;;;10.10;99.90;;;;;;5016135;28;20080;-88
2022/12/29 02:48:52;;;;;;;5.15;2.65;;;10.10;99.90;;;;;;5016240;28;20146;-88
2022/12/29 02:51:25;;;;;;;5.15;2.42;;;10.00;99.90;;;;;;5016859;28;20049;-88
2022/12/29 02:56:38;;;;;;;6.20;2.90;;;10.10;99.90;;;;;;5032565;28;20145;-88
2022/12/29 02:59:04;;;;;;;4.55;2.40;;;10.10;99.90;;;;;;5031135;28;20045;-87
2022/12/29 03:04:50;;;;;;;6.97;2.40;;;10.10;99.90;;;;;;5032315;28;20045;-87
2022/12/29 03:07:31;;;;;;;7.22;2.42;;;10.10;99.90;;;;;;5031740;28;20049;-87
2022/12/29 03:10:14;;;;;;;4.95;1.80;;;10.00;99.90;;;;;;5032270;28;20059;-88
2022/12/29 03:16:02;;;;;;;4.50;1.88;;;10.20;99.90;;;;;;5032835;28;20444;-87
2022/12/29 03:18:46;;;;;;;4.85;1.83;;;10.20;99.90;;;;;;5016140;28;20126;-88
2022/12/29 03:21:19;;;;;;;4.07;1.70;;;10.10;99.90;;;;;;5015601;28;20051;-87
2022/12/29 03:23:48;;;;;;;4.95;1.60;;;10.20;99.90;;;;;;5031531;28;20123;-88
2022/12/29 03:26:16;;;;;;;3.35;1.50;;;10.10;99.90;;;;;;5032247;28;20041;-87
2022/12/29 03:28:50;;;;;;;3.97;1.48;;;10.20;99.90;;;;;;5014235;28;20051;-88
2022/12/29 03:31:17;;;;;;;2.63;1.33;;;10.10;99.90;;;;;;5031696;28;20053;-87
2022/12/29 03:33:44;;;;;;;3.60;1.30;;;10.10;99.90;;;;;;5031637;28;20047;-87
2022/12/29 03:36:16;;;;;;;7.80;1.60;;;10.20;99.90;;;;;;5031316;28;20453;-88
2022/12/29 03:38:49;;;;;;;6.22;1.40;;;10.10;99.90;;;;;;5031871;28;20044;-88
2022/12/29 03:41:22;;;;;;;5.75;1.30;;;10.20;99.90;;;;;;5014716;28;20049;-88
2022/12/29 03:43:48;;;;;;;4.03;1.42;;;10.10;99.90;;;;;;5030682;28;20037;-87
2022/12/29 03:46:14;;;;;;;3.53;0.90;;;10.10;99.90;;;;;;5032028;28;20041;-88
2022/12/29 03:48:39;;;;;;;3.03;0.80;;;10.10;99.90;;;;;;5014892;28;20048;-88
2022/12/29 03:51:05;;;;;;;3.97;1.10;;;10.00;99.90;;;;;;5048218;28;20104;-89
2022/12/29 03:53:31;;;;;;;5.03;1.33;;;9.90;99.90;;;;;;5048762;28;20555;-88
2022/12/29 03:55:56;;;;;;;6.13;1.23;;;9.90;99.90;;;;;;5012998;28;20044;-88
2022/12/29 03:58:22;;;;;;;2.97;0.90;;;9.90;99.90;;;;;;5047495;28;20051;-89
2022/12/29 04:00:48;;;;;;;5.55;1.20;;;9.90;99.90;;;;;;5014983;28;20051;-88
2022/12/29 04:03:14;;;;;;;3.13;1.45;;;9.90;99.90;;;;;;5031173;28;20056;-89
2022/12/29 04:05:39;;;;;;;5.85;1.70;;;9.90;99.90;;;;;;5031878;28;20465;-88
2022/12/29 04:08:05;;;;;;;4.97;1.33;;;9.90;99.90;;;;;;5014592;28;20057;-88
2022/12/29 04:10:31;;;;;;;6.55;1.40;;;9.90;99.90;;;;;;5030971;28;20048;-87
2022/12/29 04:12:57;;;;;;;6.25;1.40;;;10.00;99.90;;;;;;5014013;28;20114;-88
2022/12/29 04:15:23;;;;;;;5.68;1.40;;;9.90;99.90;;;;;;5015421;28;20052;-88
2022/12/29 04:17:49;;;;;;;5.32;1.17;;;9.90;99.90;;;;;;5030375;28;20052;-89
2022/12/29 04:23:01;;;;;;;5.50;1.23;;;10.00;99.90;;;;;;5030329;28;20404;-89
2022/12/29 04:25:27;;;;;;;4.30;1.10;;;9.50;99.90;;;;;;5015172;28;20040;-88
2022/12/29 04:27:53;;;;;;;5.45;1.48;;;10.00;99.90;;;;;;5030154;28;20051;-89
2022/12/29 04:30:18;;;;;;;5.57;1.20;;;10.00;99.90;;;;;;5014206;28;20083;-88
2022/12/29 04:32:44;;;;;;;7.35;0.90;;;10.00;99.90;;;;;;5013140;28;20037;-88
2022/12/29 04:35:10;;;;;;;5.18;1.30;;;9.90;99.90;;;;;;5011127;28;20137;-88
2022/12/29 04:37:35;;;;;;;5.38;1.10;;;9.90;99.90;;;;;;4994456;28;20041;-88
2022/12/29 04:40:01;;;;;;;7.03;1.23;;;10.00;99.90;;;;;;5011006;28;20114;-87
2022/12/29 04:42:29;;;;;;;9.20;1.38;;;10.00;99.90;;;;;;5010276;28;20052;-88
2022/12/29 04:44:55;;;;;;;3.97;1.08;;;9.90;99.90;;;;;;5010918;28;20469;-88
2022/12/29 04:47:21;;;;;;;7.53;1.00;;;10.00;99.90;;;;;;5010899;28;20556;-89
2022/12/29 04:49:51;;;;;;;7.50;1.20;;;9.90;99.90;;;;;;5010560;28;20049;-88
2022/12/29 04:52:17;;;;;;;11.65;1.20;;;9.90;99.90;;;;;;4993901;28;20029;-87
2022/12/29 04:54:43;;;;;;;7.45;1.10;;;9.90;99.90;;;;;;5011159;28;20427;-88
2022/12/29 04:57:11;;;;;;;9.30;1.13;;;9.90;99.90;;;;;;5011212;28;20052;-90
2022/12/29 04:59:36;;;;;;;8.38;1.20;;;9.90;99.90;;;;;;5010761;28;20059;-89
2022/12/29 05:02:02;;;;;;;14.25;1.83;;;9.80;99.90;;;;;;5010969;28;20050;-89
2022/12/29 05:04:28;;;;;;;9.60;1.10;;;9.80;99.90;;;;;;5011247;28;20095;-90
2022/12/29 05:06:53;;;;;;;11.20;1.23;;;9.70;99.90;;;;;;5009366;28;20041;-89
2022/12/29 05:09:19;;;;;;;12.18;1.55;;;9.70;99.90;;;;;;5011441;28;20072;-89
2022/12/29 05:11:45;;;;;;;9.80;1.45;;;9.60;99.90;;;;;;5010012;28;20045;-87
2022/12/29 05:14:11;;;;;;;10.57;1.50;;;9.70;99.90;;;;;;5010292;28;20076;-89
2022/12/29 05:16:36;;;;;;;10.00;1.45;;;9.60;99.90;;;;;;5011156;28;20041;-88
2022/12/29 05:19:02;;;;;;;8.57;1.33;;;9.50;99.90;;;;;;5010597;28;20498;-89
2022/12/29 05:21:28;;;;;;;12.80;2.05;;;9.40;99.90;;;;;;5010411;28;20068;-89
2022/12/29 05:23:53;;;;;;;10.95;1.95;;;9.50;99.90;;;;;;5023020;28;20135;-89
2022/12/29 05:26:19;;;;;;;11.15;1.40;;;9.40;99.90;;;;;;5030732;28;20045;-89
2022/12/29 05:28:45;;;;;;;9.30;1.88;;;9.40;99.90;;;;;;5023253;28;20057;-89
2022/12/29 05:31:11;;;;;;;11.02;1.67;;;9.30;99.90;;;;;;5010587;28;20041;-89
2022/12/29 05:33:38;;;;;;;11.43;1.85;;;9.30;99.90;;;;;;5012816;28;20040;-89
2022/12/29 05:36:07;;;;;;;12.68;1.45;;;9.30;99.90;;;;;;5030015;28;20136;-90
2022/12/29 05:38:33;;;;;;;15.90;2.10;;;9.30;99.90;;;;;;5014019;28;20110;-89
2022/12/29 05:40:59;;;;;;;8.50;1.40;;;9.20;99.90;;;;;;5013260;28;20049;-89
2022/12/29 05:43:27;;;;;;;12.13;1.70;;;9.30;99.90;;;;;;5030218;28;20053;-88
2022/12/29 05:45:53;;;;;;;13.15;1.45;;;9.20;99.90;;;;;;5012890;28;20044;-90
2022/12/29 05:48:19;;;;;;;11.85;1.90;;;9.40;99.90;;;;;;5013335;28;20095;-89
2022/12/29 05:50:49;;;;;;;10.82;1.80;;;9.10;99.90;;;;;;5013640;28;20084;-88
2022/12/29 05:53:16;;;;;;;8.73;1.42;;;9.10;99.90;;;;;;5013325;28;20053;-88
2022/12/29 05:55:42;;;;;;;12.77;1.95;;;9.00;99.90;;;;;;5029105;28;20041;-89
2022/12/29 05:58:09;;;;;;;12.32;2.42;;;9.10;99.90;;;;;;5029484;28;20045;-89
2022/12/29 06:00:34;;;;;;;10.27;2.03;;;9.10;99.90;;;;;;5013474;28;20698;-89
2022/12/29 06:03:03;;;;;;;10.38;1.75;;;8.50;99.90;;;;;;5011910;28;20041;-90
2022/12/29 06:05:29;;;;;;;12.65;2.10;;;9.20;99.90;;;;;;5013996;28;20554;-90
2022/12/29 06:07:55;;;;;;;14.27;1.98;;;9.20;99.90;;;;;;5012940;28;20053;-90
2022/12/29 06:10:21;;;;;;;12.40;2.17;;;9.20;99.90;;;;;;5013624;28;20048;-90
2022/12/29 06:12:47;;;;;;;14.13;1.95;;;9.20;99.90;;;;;;5012440;28;20391;-88
2022/12/29 06:15:13;;;;;;;13.00;1.60;;;9.30;99.90;;;;;;5029154;28;20049;-88
2022/12/29 06:17:39;;;;;;;13.77;1.90;;;9.30;99.90;;;;;;5029388;28;20045;-87
2022/12/29 06:20:05;;;;;;;11.75;1.38;;;9.30;99.90;;;;;;5015250;28;20393;-88
2022/12/29 06:22:31;;;;;;;13.40;1.85;;;9.30;99.90;;;;;;5017884;28;20052;-88
2022/12/29 06:24:57;;;;;;;16.10;2.50;;;9.60;99.90;;;;;;5016630;28;20037;-87
2022/12/29 06:27:22;;;;;;;12.80;2.08;;;9.40;99.90;;;;;;5016415;28;20048;-87
2022/12/29 06:29:53;;;;;;;12.80;2.38;;;9.30;99.90;;;;;;5016184;28;20044;-86
2022/12/29 06:32:18;;;;;;;14.77;1.90;;;9.30;99.90;;;;;;5019402;28;20042;-87
2022/12/29 06:34:49;;;;;;;14.30;2.17;;;9.20;99.90;;;;;;5013767;28;20126;-87
2022/12/29 06:37:14;;;;;;;14.38;2.30;;;9.10;99.90;;;;;;5013132;28;20122;-88
2022/12/29 06:39:43;;;;;;;11.73;2.17;;;9.10;99.90;;;;;;5014001;28;20095;-88
2022/12/29 06:42:09;;;;;;;15.90;1.88;;;9.10;99.90;;;;;;5013334;28;20045;-87
2022/12/29 06:44:35;;;;;;;14.02;3.05;;;9.00;99.90;;;;;;5013542;28;20509;-88
2022/12/29 06:47:01;;;;;;;13.80;1.85;;;9.00;99.90;;;;;;5013470;28;20440;-88
2022/12/29 06:49:26;;;;;;;11.35;2.08;;;9.20;99.90;;;;;;5013700;28;20099;-87
2022/12/29 06:51:52;;;;;;;18.27;2.40;;;9.00;99.90;;;;;;5012999;28;20052;-88
2022/12/29 06:54:18;;;;;;;11.35;1.80;;;9.00;99.90;;;;;;5013594;28;20045;-88
2022/12/29 06:56:44;;;;;;;14.77;2.30;;;9.00;99.90;;;;;;5013254;28;20045;-86
2022/12/29 06:59:12;;;;;;;14.45;2.33;;;9.00;99.90;;;;;;5013697;28;20088;-89
2022/12/29 07:01:38;;;;;;;15.43;2.17;;;8.90;99.90;;;;;;4997658;28;20081;-87
2022/12/29 07:04:09;;;;;;;18.13;2.53;;;8.90;99.90;;;;;;5012744;28;20108;-88
2022/12/29 07:06:35;;;;;;;11.63;2.17;;;8.90;99.90;;;;;;5012388;28;20037;-87
2022/12/29 07:09:01;;;;;;;17.10;3.03;;;8.90;99.90;;;;;;5012514;28;20059;-87
2022/12/29 07:11:26;;;;;;;17.67;2.15;;;8.90;99.90;;;;;;5013537;28;20184;-89
2022/12/29 07:13:52;;;;;;;22.80;3.05;;;8.90;99.90;;;;;;5012472;28;20076;-89
2022/12/29 07:16:20;;;;;;;16.13;2.10;;;8.90;99.90;;;;;;5013905;28;20503;-88
2022/12/29 07:18:46;;;;;;;14.68;2.45;;;9.00;99.90;;;;;;5013399;28;20503;-88
2022/12/29 07:21:12;;;;;;;15.60;2.25;;;8.90;99.90;;;;;;5013868;28;20045;-88
2022/12/29 07:23:37;;;;;;;14.40;2.60;;;9.00;99.90;;;;;;5012877;28;20519;-89
2022/12/29 07:26:06;;;;;;;15.43;2.50;;;9.20;99.90;;;;;;5013036;28;20326;-88
2022/12/29 07:28:32;;;;;;;15.23;1.95;;;9.00;99.90;;;;;;5011731;28;20053;-87
2022/12/29 07:30:58;;;;;;;15.35;2.50;;;9.00;99.90;;;;;;5012278;28;20120;-88
2022/12/29 07:33:24;;;;;;;17.58;2.45;;;9.10;99.90;;;;;;5012035;28;20037;-88
2022/12/29 07:35:53;;;;;;;17.42;1.77;;;9.10;99.90;;;;;;5013571;28;20115;-88
2022/12/29 07:38:19;;;;;;;13.80;2.28;;;9.10;99.90;;;;;;5013854;28;20461;-85
2022/12/29 07:40:45;;;;;;;15.75;2.65;;;9.20;99.90;;;;;;5011870;28;20503;-88
2022/12/29 07:43:14;;;;;;;13.57;2.17;;;9.20;99.90;;;;;;4996705;28;20096;-89
2022/12/29 07:45:39;;;;;;;12.52;1.90;;;9.20;99.90;;;;;;5013025;28;20076;-89
2022/12/29 07:48:08;;;;;;;16.98;2.78;;;9.20;99.90;;;;;;5011660;28;20045;-87
2022/12/29 07:50:36;;;;;;;12.82;2.15;;;9.30;99.90;;;;;;5012970;28;20053;-88
2022/12/29 07:53:02;;;;;;;12.35;2.38;;;9.20;99.90;;;;;;5029182;28;20367;-87
2022/12/29 07:55:28;;;;;;;14.90;2.50;;;9.30;99.90;;;;;;5023121;28;20045;-89
2022/12/29 07:57:55;;;;;;;15.88;2.40;;;9.30;99.90;;;;;;5064523;28;20134;-89
2022/12/29 08:00:21;;;;;;;11.32;2.85;;;9.30;99.90;;;;;;5031626;28;20485;-89
2022/12/29 08:02:47;;;;;;;16.35;3.58;;;9.30;99.90;;;;;;5015103;28;20495;-89
2022/12/29 08:05:12;;;;;;;16.90;2.80;;;9.30;99.90;;;;;;5032521;28;20044;-88
2022/12/29 08:07:38;;;;;;;17.60;2.90;;;9.30;99.90;;;;;;5028536;28;20062;-87
2022/12/29 08:10:05;;;;;;;14.82;2.80;;;9.30;99.90;;;;;;5030682;28;20068;-87
2022/12/29 08:12:31;;;;;;;14.32;2.10;;;9.30;99.90;;;;;;5014866;28;20064;-88
2022/12/29 08:14:57;;;;;;;17.70;2.35;;;9.30;99.90;;;;;;5015709;28;20040;-88
2022/12/29 08:17:22;;;;;;;14.93;2.47;;;9.20;99.90;;;;;;5031240;28;20473;-87
2022/12/29 08:19:48;;;;;;;20.55;3.10;;;9.20;99.90;;;;;;5014947;28;20052;-88
2022/12/29 08:22:17;;;;;;;13.88;2.63;;;9.30;99.90;;;;;;5015296;28;20040;-88
2022/12/29 08:24:43;;;;;;;16.15;2.97;;;9.30;99.90;;;;;;5015951;28;20051;-92
2022/12/29 08:27:14;;;;;;;22.42;2.63;;;9.30;99.90;;;;;;5016660;28;20033;-89
2022/12/29 08:29:43;;;;;;;17.13;2.95;;;9.30;99.90;;;;;;5016258;28;20406;-90
2022/12/29 08:32:09;;;;;;;17.27;2.60;;;9.20;99.90;;;;;;5013147;28;20064;-89
2022/12/29 08:34:34;;;;;;;16.42;2.60;;;9.30;99.90;;;;;;5012527;28;20482;-91
2022/12/29 08:37:00;;;;;;;13.15;2.25;;;9.30;99.90;;;;;;5011732;28;20033;-87
2022/12/29 08:39:26;;;;;;;18.77;3.15;;;9.30;99.90;;;;;;5013507;28;20142;-87
2022/12/29 08:41:54;;;;;;;20.00;2.90;;;9.40;99.90;;;;;;5028310;28;20083;-87
2022/12/29 08:44:20;;;;;;;15.65;2.65;;;9.30;99.90;;;;;;5030382;28;20441;-87
2022/12/29 08:46:46;;;;;;;20.90;3.38;;;9.20;99.90;;;;;;5013107;28;20067;-85
2022/12/29 08:49:11;;;;;;;22.52;2.67;;;9.20;99.90;;;;;;5013591;28;20045;-86
2022/12/29 08:51:37;;;;;;;25.50;3.20;;;9.10;99.90;;;;;;5029565;28;20041;-86
2022/12/29 08:54:03;;;;;;;22.17;2.97;;;9.00;99.90;;;;;;5029646;28;20083;-86
2022/12/29 08:56:29;;;;;;;21.75;3.50;;;8.90;99.90;;;;;;5006042;28;20450;-86
2022/12/29 08:58:54;;;;;;;21.48;3.78;;;8.90;99.90;;;;;;5008821;28;20048;-86
2022/12/29 09:01:21;;;;;;;148.23;23.63;;;9.10;99.90;;;;;;5010840;28;20048;-86
2022/12/29 09:03:47;;;;;;;22.70;3.72;;;9.00;99.90;;;;;;5010168;28;20042;-86
2022/12/29 09:06:14;;;;;;;27.40;3.67;;;8.90;99.90;;;;;;5026527;28;20037;-86
2022/12/29 09:08:40;;;;;;;33.90;5.40;;;9.00;99.90;;;;;;5010662;28;20474;-86
2022/12/29 09:11:07;;;;;;;24.10;4.28;;;9.00;99.90;;;;;;5010204;28;20194;-87
2022/12/29 09:13:33;;;;;;;27.13;3.42;;;9.00;99.90;;;;;;5009304;28;20049;-86
2022/12/29 09:16:00;;;;;;;39.90;6.50;;;8.90;99.90;;;;;;5010601;28;20053;-87
2022/12/29 09:18:26;;;;;;;31.85;4.63;;;8.90;99.90;;;;;;5009575;28;20045;-86
2022/12/29 09:20:59;;;;;;;25.40;3.92;;;9.00;99.90;;;;;;5010403;28;20108;-86
2022/12/29 09:23:25;;;;;;;105.40;14.73;;;9.00;99.90;;;;;;4993734;28;20199;-86
2022/12/29 09:25:52;;;;;;;30.02;4.35;;;9.00;99.90;;;;;;5009197;28;20049;-86
2022/12/29 09:28:18;;;;;;;26.17;4.90;;;9.10;99.90;;;;;;5009074;28;20081;-87
2022/12/29 09:30:43;;;;;;;21.35;3.63;;;9.10;99.90;;;;;;5010402;28;20081;-87
2022/12/29 09:33:09;;;;;;;24.42;3.78;;;9.10;99.90;;;;;;5009776;28;20409;-87
2022/12/29 09:35:35;;;;;;;27.58;3.83;;;9.50;99.90;;;;;;4994567;28;20087;-87
2022/12/29 09:38:00;;;;;;;20.98;3.55;;;9.10;99.90;;;;;;5026139;28;20052;-87
2022/12/29 09:40:30;;;;;;;20.00;3.28;;;9.50;99.90;;;;;;5041947;28;20119;-86
2022/12/29 09:43:22;;;;;;;18.00;3.25;;;9.10;99.90;;;;;;5041737;28;20049;-87
2022/12/29 09:46:03;;;;;;;13.68;2.70;;;9.10;99.90;;;;;;4993222;28;20048;-87
2022/12/29 09:48:36;;;;;;;22.00;2.83;;;9.10;99.90;;;;;;4992975;28;20477;-88
2022/12/29 09:51:09;;;;;;;17.73;3.20;;;9.00;99.90;;;;;;4993915;28;20077;-88
2022/12/29 09:53:44;;;;;;;17.92;2.70;;;9.00;99.90;;;;;;5025464;28;20485;-87
2022/12/29 09:56:16;;;;;;;21.25;2.80;;;9.00;99.90;;;;;;5029608;28;20080;-87
2022/12/29 09:58:51;;;;;;;18.97;2.53;;;9.10;99.90;;;;;;5009813;28;20037;-87
2022/12/29 10:01:32;;;;;;;13.32;2.28;;;9.00;99.90;;;;;;5009724;28;20037;-88
2022/12/29 10:04:02;;;;;;;19.90;2.70;;;9.20;99.90;;;;;;5009734;28;20500;-88
2022/12/29 10:06:46;;;;;;;16.48;2.70;;;9.10;99.90;;;;;;5013466;28;20041;-85
2022/12/29 10:09:47;;;;;;;17.38;2.75;;;9.10;99.90;;;;;;5028729;28;20182;-86
2022/12/29 10:12:21;;;;;;;18.00;3.55;;;9.10;99.90;;;;;;5012435;28;20053;-86
2022/12/29 10:15:13;;;;;;;11.65;2.28;;;9.10;99.90;;;;;;5027977;28;20059;-85
2022/12/29 10:17:54;;;;;;;18.13;2.58;;;9.10;99.90;;;;;;5046054;28;20408;-86
2022/12/29 10:20:33;;;;;;;22.38;3.63;;;9.10;99.90;;;;;;5029532;28;20057;-86
2022/12/29 10:23:19;;;;;;;15.27;2.80;;;9.00;99.90;;;;;;5011680;28;20072;-84
2022/12/29 10:25:45;;;;;;;16.98;2.60;;;8.90;99.90;;;;;;5028864;28;20065;-85
2022/12/29 10:28:24;;;;;;;21.58;3.00;;;8.90;99.90;;;;;;5044358;28;20045;-86
2022/12/29 10:30:53;;;;;;;21.00;2.92;;;8.80;99.90;;;;;;5010037;28;20499;-88
2022/12/29 10:33:24;;;;;;;17.83;2.42;;;8.80;99.90;;;;;;5009208;28;20041;-87
2022/12/29 10:35:50;;;;;;;14.68;2.10;;;8.80;99.90;;;;;;5007907;28;20486;-86
2022/12/29 10:38:28;;;;;;;19.65;2.10;;;8.70;99.90;;;;;;4993218;28;20460;-87
2022/12/29 10:41:11;;;;;;;21.90;3.60;;;8.80;99.90;;;;;;5009001;28;20049;-86
2022/12/29 10:43:48;;;;;;;13.68;2.55;;;8.60;99.90;;;;;;5007984;28;20488;-87
2022/12/29 10:46:18;;;;;;;14.90;2.20;;;8.50;99.90;;;;;;5009766;28;20048;-86
2022/12/29 10:48:46;;;;;;;15.68;2.35;;;8.60;99.90;;;;;;5008641;28;20461;-87
2022/12/29 10:51:20;;;;;;;18.40;2.22;;;8.60;99.90;;;;;;4992538;28;20374;-88
2022/12/29 10:53:51;;;;;;;21.15;2.60;;;8.60;99.90;;;;;;4993016;28;20051;-86
2022/12/29 10:56:38;;;;;;;19.70;3.08;;;8.70;99.90;;;;;;5009564;28;20100;-87
2022/12/29 10:59:20;;;;;;;24.27;2.90;;;8.90;99.90;;;;;;5007449;28;20128;-87
2022/12/29 11:02:04;;;;;;;15.63;2.73;;;8.70;99.90;;;;;;5008840;28;20046;-88
2022/12/29 11:04:41;;;;;;;20.60;3.03;;;8.80;99.90;;;;;;4992221;28;20046;-87
2022/12/29 11:07:08;;;;;;;19.48;2.70;;;8.70;99.90;;;;;;5008961;28;20140;-87
2022/12/29 11:09:36;;;;;;;24.27;3.65;;;8.90;99.90;;;;;;4976469;28;20502;-87
2022/12/29 11:12:20;;;;;;;25.58;3.35;;;8.90;99.90;;;;;;4991483;28;20133;-87
2022/12/29 11:14:45;;;;;;;16.65;3.00;;;8.90;99.90;;;;;;4992780;28;20760;-87
2022/12/29 11:17:16;;;;;;;15.77;2.65;;;8.90;99.90;;;;;;4992550;28;20124;-87
2022/12/29 11:19:42;;;;;;;21.25;3.92;;;9.00;99.90;;;;;;4993188;28;20129;-87
2022/12/29 11:22:22;;;;;;;21.40;2.78;;;9.00;99.90;;;;;;5009476;28;20490;-87
2022/12/29 11:24:50;;;;;;;23.33;3.22;;;9.00;99.90;;;;;;4993214;28;20121;-88
2022/12/29 11:27:20;;;;;;;21.25;4.07;;;9.00;99.90;;;;;;4975915;28;20132;-88
2022/12/29 11:29:48;;;;;;;25.60;4.60;;;9.00;99.90;;;;;;5004185;28;20123;-89
2022/12/29 11:32:23;;;;;;;19.92;3.67;;;9.00;99.90;;;;;;5009138;28;20366;-89
2022/12/29 11:34:50;;;;;;;32.35;3.95;;;9.00;99.90;;;;;;5002687;28;20048;-89
2022/12/29 11:37:29;;;;;;;31.63;4.13;;;9.10;99.90;;;;;;5004674;28;20046;-90
2022/12/29 11:40:04;;;;;;;24.63;3.75;;;9.10;99.90;;;;;;4994011;28;20096;-89
2022/12/29 11:42:40;;;;;;;24.27;4.28;;;9.10;99.90;;;;;;4996314;28;20163;-89
2022/12/29 11:45:15;;;;;;;23.08;3.50;;;9.30;99.90;;;;;;5012753;28;20121;-88
2022/12/29 11:47:44;;;;;;;28.02;4.78;;;9.30;99.90;;;;;;5010842;28;20471;-87
2022/12/29 11:50:18;;;;;;;29.05;4.20;;;9.30;99.90;;;;;;5012694;28;20103;-90
2022/12/29 11:52:50;;;;;;;28.83;3.60;;;9.30;99.90;;;;;;4996386;28;20041;-89
2022/12/29 11:55:21;;;;;;;22.27;3.38;;;9.30;99.90;;;;;;4996053;28;20481;-88
2022/12/29 11:57:49;;;;;;;25.00;4.47;;;9.30;99.90;;;;;;5011299;28;20504;-88
2022/12/29 12:00:19;;;;;;;32.67;4.60;;;9.30;99.90;;;;;;5012300;28;20101;-87
2022/12/29 12:03:00;;;;;;;28.23;4.47;;;9.30;99.90;;;;;;4992118;28;20077;-88
2022/12/29 12:05:36;;;;;;;28.23;4.28;;;9.40;99.90;;;;;;5010139;28;20054;-87
2022/12/29 12:08:09;;;;;;;19.10;3.25;;;9.40;99.90;;;;;;4991654;28;20082;-87
2022/12/29 12:10:44;;;;;;;21.08;3.33;;;9.30;99.90;;;;;;5010136;28;20093;-88
2022/12/29 12:13:18;;;;;;;31.98;4.60;;;9.20;99.90;;;;;;4994738;28;20386;-89
2022/12/29 12:15:53;;;;;;;23.27;4.00;;;9.30;99.90;;;;;;4994456;28;20055;-85
2022/12/29 12:18:40;;;;;;;27.13;4.20;;;9.40;99.90;;;;;;4995500;28;20048;-92
2022/12/29 12:21:14;;;;;;;24.90;3.35;;;9.40;99.90;;;;;;5012078;28;20127;-87
2022/12/29 12:24:00;;;;;;;22.88;3.75;;;9.50;99.90;;;;;;5011315;28;20041;-87
2022/12/29 12:26:35;;;;;;;30.27;4.57;;;9.50;99.90;;;;;;5012143;28;20149;-88
2022/12/29 12:29:19;;;;;;;29.55;4.10;;;9.50;99.90;;;;;;4993680;28;20379;-88
2022/12/29 12:31:48;;;;;;;25.17;3.97;;;9.50;99.90;;;;;;4995880;28;20061;-90
2022/12/29 12:34:27;;;;;;;24.60;3.95;;;9.50;99.90;;;;;;4994658;28;20045;-89
2022/12/29 12:37:04;;;;;;;24.00;4.18;;;9.60;99.90;;;;;;4992806;28;20077;-88
2022/12/29 12:39:47;;;;;;;19.30;3.00;;;9.60;99.90;;;;;;4996267;28;20077;-88
2022/12/29 12:42:20;;;;;;;28.58;4.70;;;9.60;99.90;;;;;;4994688;28;20140;-87
2022/12/29 12:45:01;;;;;;;21.77;3.85;;;9.50;99.90;;;;;;4994430;28;20056;-88
2022/12/29 12:47:40;;;;;;;20.77;2.97;;;9.40;99.90;;;;;;4995371;28;20053;-87
2022/12/29 12:50:21;;;;;;;22.90;3.97;;;9.30;99.90;;;;;;5010683;28;20053;-89
2022/12/29 12:53:00;;;;;;;28.08;4.07;;;9.30;99.90;;;;;;4994679;28;20049;-91
2022/12/29 12:55:43;;;;;;;22.67;3.58;;;9.30;99.90;;;;;;4997426;28;20051;-89
2022/12/29 12:58:25;;;;;;;26.17;4.07;;;9.30;99.90;;;;;;4994947;28;20061;-91
2022/12/29 13:01:10;;;;;;;20.90;2.97;;;9.30;99.90;;;;;;4994715;28;20127;-89
2022/12/29 13:03:53;;;;;;;20.10;3.00;;;9.20;99.90;;;;;;4982677;28;20045;-89
2022/12/29 13:06:49;;;;;;;20.02;2.95;;;9.30;99.90;;;;;;4996394;28;20046;-89
2022/12/29 13:09:43;;;;;;;;;;;;;;;;;;;;;
2022/12/29 13:13:01;;;;;;;16.08;2.80;;;9.10;99.90;;;;;;4998368;28;20049;-95
2022/12/29 13:16:00;;;;;;;17.98;2.72;;;9.30;99.90;;;;;;4978530;28;20042;-93
2022/12/29 13:18:49;;;;;;;21.08;3.08;;;9.00;99.90;;;;;;4979141;28;20049;-92
2022/12/29 13:21:36;;;;;;;13.45;2.03;;;9.00;99.90;;;;;;4988848;28;20128;-91
2022/12/29 13:24:19;;;;;;;9.38;1.77;;;8.90;99.90;;;;;;4981494;28;20045;-92
2022/12/29 13:26:55;;;;;;;15.93;2.03;;;9.00;99.90;;;;;;4975736;28;20041;-93
2022/12/29 13:29:35;;;;;;;19.17;2.75;;;8.80;99.90;;;;;;4977135;28;20057;-92
2022/12/29 13:32:23;;;;;;;17.42;2.83;;;8.80;99.90;;;;;;4990707;28;20048;-90
2022/12/29 13:35:19;;;;;;;11.07;1.70;;;8.80;99.90;;;;;;4997171;28;20137;-95
2022/12/29 13:37:55;;;;;;;14.52;2.47;;;8.70;99.90;;;;;;4995708;28;20044;-95
2022/12/29 13:40:26;;;;;;;10.18;1.58;;;8.70;99.90;;;;;;5005155;28;20085;-95
2022/12/29 13:42:53;;;;;;;15.15;1.70;;;8.70;99.90;;;;;;4996863;28;20045;-94
2022/12/29 13:45:24;;;;;;;17.67;2.47;;;8.70;99.90;;;;;;4997230;28;20088;-95